Terminal Aerodrome Forecast
Issued by NWS Cleveland, OH

Home | Current Version | Previous Version | Graphics & Text | Print | Product List | Glossary Off
Versions: 1 2 3 4 5 6 7 8 9 10 11 12 13 14 15 16 17 18 19 20 21 22 23 24 25 26 27

000
FTUS41 KCLE 231900 AAA
TAFCLE
TAF AMD
KCLE 231926Z 2319/2424 35011KT P6SM SCT009 OVC015
      TEMPO 2319/2322 4SM -DZ BR BKN009
     FM240000 36009KT P6SM BKN025
     FM241900 01012KT P6SM SCT040=

USA.gov is the U.S. government's official web portal to all federal, state and local government web resources and services.